EKVJ/STA METAR and TAF weather

Enter ICAO airport designator
Station Type Date Time Source
EKVJ METAR 2020/07/04 09:50 UTC NOAA

EKVJ 040950Z 24014KT 5000 -RA BR SCT004 BKN006 15/15 Q1006


Station Type Date Time Source
EKVJ Decoded METAR 2020/07/04 09:50 UTC NOAA

Stauning Lufthavn, Denmark (EKVJ) 56-00N 008-21E 5M
Jul 04, 2020 - 05:50 AM EDT / 2020.07.04 0950 UTC
Wind: from the WSW (240 degrees) at 16 MPH (14 KT):0
Visibility: 3 mile(s):0
Sky conditions: mostly cloudy
Weather: light rain; mist
Temperature: 59 F (15 C)
Dew Point: 59 F (15 C)
Relative Humidity: 100%
Pressure (altimeter): 29.71 in. Hg (1006 hPa)
ob: EKVJ 040950Z 24014KT 5000 -RA BR SCT004 BKN006 15/15 Q1006
cycle: 10

Station Type Date Time Source
EKVJ TAF UTC NOAA

Error!

Example: see airport list